Terminal Aerodrome Forecast
Issued by NWS Charleston, WV

Home | Current Version | Previous Version | Text Only | Print | Product List | Glossary On
Versions: 1 2 3 4 5 6 7 8 9 10 11 12 13 14 15 16 17 18 19 20 21 22 23 24 25 26 27 28 29
839
FTUS41 KRLX 201739
TAFEKN
TAF
KEKN 201739Z 2018/2118 18007KT P6SM OVC025
     FM202000 22005KT P6SM BKN035
     FM210800 18002KT 4SM BR BKN050
     FM211000 19002KT 1SM BR SCT001 BKN100
     FM211300 VRB03KT P6SM BKN100=

USA.gov is the U.S. government's official web portal to all federal, state and local government web resources and services.